Portada
METAR-TAF:

METAR-TAF

Aeroports :

Taixkent, Uzbekistan

latitud: 41-16N, longitud: 069-16E, altitud: 489 m

Observació

L'informe es va fer fa 41 minuts, a les 09:30 UTC
Vent 4 kt del Nord, variant entre Oest/Nord-Oest i Nord-Est
Temperatura 23°C
Humitat 23%
Pressió 1009 hPa
Visibilitat 10 km o més
sense núvols per sota de 1500 mi sense presència de cumulonimbus.

METAR: UTTT 300930Z 35004KT 290V050 CAVOK 23/01 Q1009 R08R/CLRD70 NOSIG

Hora: 15:11 (10:11 UTC)

Pronòstic

L'informe es va fer fa 5 hores i 11 minuts, a les 05:00 UTC
Pronòstic vàlid del 30 a les 06 UTC al 31 a les 06 UTC
Vent 10 kt del Sud/Sud-Oest
Visibilitat: 7000 m
Temporalment
l' 30 a les 06 UTC al 30 a les 15 UTC
Vent 10 kt del Oest amb ràfegues de 20 kt
Escasses núvols a una alçada de 6000 ft, Cumulonimbus.
Núvols disperses a una alçada de 10000 ft

TAF: UTTT 300500Z 3006/3106 20010KT 7000 NSC TEMPO 3006/3015 27010G20KT FEW060CB SCT100

Observacions i pronòstics meteorològics de més de 4000 aeroports (METAR i TAF).

Les estacions disponibles són els punts grocs i vermells al mapa.

Posi el ratolí al punt desitjat per veure el nom de l'estació.

Feu clic per veure les observacions i els pronòstics meteorològics.

Per canviar el mapa: feu clic els botons verds amb una creu de color negre per apropar; al botó verd amb un guió per allunyar la imatge; o en les fletxes verdes per a mapes adjacents.


METAR-TAF: